Time;durP1;ratioP1;P1;durP2;ratioP2;P2;SDS_P1;SDS_P2;PMS_P1;PMS_P2;Temp;Humidity;BMP_temperature;BMP_pressure;BME280_temperature;BME280_humidity;BME280_pressure;Samples;Min_cycle;Max_cycle;Signal;HPM_P1;HPM_P2
2023/06/02 00:04:26;;;;;;;5.93;4.50;;;;;;;13.36;79.12;99993.63;10415949;28;20037;-70
2023/06/02 00:09:27;;;;;;;5.90;4.50;;;;;;;13.26;79.73;99988.81;10414842;28;20049;-68
2023/06/02 00:14:30;;;;;;;8.80;4.43;;;;;;;13.19;79.95;99997.88;10414807;28;20065;-68
2023/06/02 00:19:32;;;;;;;8.80;4.43;;;;;;;13.24;79.18;100009.16;10414865;28;20041;-68
2023/06/02 00:24:34;;;;;;;7.22;4.93;;;;;;;13.18;79.24;100010.22;10413565;28;20072;-68
2023/06/02 00:29:36;;;;;;;7.68;4.72;;;;;;;12.93;81.02;100005.16;10414677;28;20388;-68
2023/06/02 00:34:38;;;;;;;6.47;4.22;;;;;;;12.98;80.60;100016.38;10413220;28;20080;-68
2023/06/02 00:39:39;;;;;;;5.07;4.45;;;;;;;12.79;82.02;100010.13;10414481;28;20096;-68
2023/06/02 00:44:41;;;;;;;5.45;4.50;;;;;;;12.68;82.73;100004.44;10412967;28;20079;-69
2023/06/02 00:49:43;;;;;;;8.00;4.57;;;;;;;12.57;82.87;99997.84;10413999;28;20450;-69
2023/06/02 00:54:45;;;;;;;10.90;4.63;;;;;;;12.40;83.88;100005.56;10413832;28;20049;-69
2023/06/02 00:59:47;;;;;;;10.75;5.10;;;;;;;12.52;82.82;100005.03;10416275;28;20428;-69
2023/06/02 01:04:51;;;;;;;7.10;5.20;;;;;;;12.36;83.50;100010.09;10420018;28;20049;-69
2023/06/02 01:09:55;;;;;;;10.05;5.95;;;;;;;12.24;84.54;100012.34;10420085;28;20045;-70
2023/06/02 01:14:57;;;;;;;6.65;4.90;;;;;;;12.31;83.25;100016.47;10419889;28;20045;-70
2023/06/02 01:20:03;;;;;;;8.98;4.88;;;;;;;12.14;84.65;100025.00;10420455;28;20049;-70
2023/06/02 01:25:28;;;;;;;9.27;4.97;;;;;;;11.98;85.58;100026.50;10420634;28;20046;-70
2023/06/02 01:30:31;;;;;;;7.63;5.10;;;;;;;12.00;85.22;100022.06;10419337;28;20569;-70
2023/06/02 01:35:44;;;;;;;7.38;4.88;;;;;;;12.00;85.15;100022.91;10420969;28;20046;-70
2023/06/02 01:40:47;;;;;;;9.55;5.25;;;;;;;11.94;85.38;100025.75;10420905;28;20117;-70
2023/06/02 01:45:51;;;;;;;16.15;5.05;;;;;;;11.74;86.94;100023.00;10419051;28;20057;-70
2023/06/02 01:50:52;;;;;;;8.23;5.43;;;;;;;11.81;86.21;100029.72;10418721;28;20072;-70
2023/06/02 01:55:54;;;;;;;8.43;5.72;;;;;;;11.65;87.21;100032.06;10401983;28;20077;-70
2023/06/02 02:00:57;;;;;;;6.53;5.78;;;;;;;11.67;86.79;100024.97;10418290;28;20042;-70
2023/06/02 02:05:59;;;;;;;9.32;5.82;;;;;;;11.54;87.47;100021.91;10419715;28;20441;-70
2023/06/02 02:11:01;;;;;;;13.00;5.18;;;;;;;11.53;87.35;100019.34;10419269;28;20438;-70
2023/06/02 02:16:03;;;;;;;8.50;5.47;;;;;;;11.55;86.95;100026.28;10419992;28;20402;-70
2023/06/02 02:21:05;;;;;;;11.43;5.88;;;;;;;11.34;87.52;100027.91;10417748;28;20490;-70
2023/06/02 02:26:07;;;;;;;8.85;6.03;;;;;;;11.27;88.36;100028.16;10418871;28;20046;-70
2023/06/02 02:31:09;;;;;;;6.80;5.82;;;;;;;11.30;88.48;100030.69;10417178;28;20087;-70
2023/06/02 02:36:12;;;;;;;7.93;5.80;;;;;;;11.38;86.97;100031.28;10416659;28;20467;-70
2023/06/02 02:41:14;;;;;;;7.90;5.13;;;;;;;11.25;87.85;100043.16;10417834;28;20073;-70
2023/06/02 02:46:16;;;;;;;7.28;5.18;;;;;;;11.25;87.88;100036.13;10417912;28;20514;-70
2023/06/02 02:51:18;;;;;;;6.03;4.65;;;;;;;11.22;88.91;100053.78;10417052;28;20045;-74
2023/06/02 02:56:22;;;;;;;11.55;5.85;;;;;;;11.33;87.08;100054.25;10400447;28;20072;-73
2023/06/02 03:01:26;;;;;;;8.05;5.03;;;;;;;11.19;88.14;100062.63;10415801;28;20056;-74
2023/06/02 03:06:31;;;;;;;9.40;5.38;;;;;;;11.09;88.95;100061.22;10399481;28;20050;-74
2023/06/02 03:11:34;;;;;;;5.97;4.93;;;;;;;11.15;88.79;100068.91;10417305;28;20037;-74
2023/06/02 03:16:40;;;;;;;9.52;5.75;;;;;;;11.20;88.27;100061.72;10415497;28;20116;-74
2023/06/02 03:21:44;;;;;;;11.60;5.10;;;;;;;11.07;89.22;100065.69;10414151;28;20050;-74
2023/06/02 03:26:51;;;;;;;9.88;5.05;;;;;;;11.22;88.02;100077.47;10415139;28;20072;-74
2023/06/02 03:31:55;;;;;;;16.23;5.35;;;;;;;11.21;88.00;100073.13;10414728;28;20045;-74
2023/06/02 03:37:01;;;;;;;8.63;4.68;;;;;;;11.24;87.84;100080.88;10414635;28;20049;-74
2023/06/02 03:42:05;;;;;;;15.38;4.13;;;;;;;11.36;86.43;100089.22;10414394;28;20065;-71
2023/06/02 03:47:08;;;;;;;16.92;5.18;;;;;;;11.57;84.79;100085.00;10414282;28;20048;-70
2023/06/02 03:52:10;;;;;;;10.10;4.70;;;;;;;11.71;83.87;100102.94;10416032;28;20037;-70
2023/06/02 03:57:11;;;;;;;9.20;4.78;;;;;;;11.44;84.46;100109.16;10413777;28;20053;-70
2023/06/02 04:02:13;;;;;;;9.00;5.47;;;;;;;11.29;86.28;100108.78;10413797;28;20473;-70
2023/06/02 04:07:16;;;;;;;12.27;5.47;;;;;;;11.25;86.74;100115.06;10414916;28;20387;-70
2023/06/02 04:12:18;;;;;;;10.50;4.22;;;;;;;11.53;83.50;100120.25;10414712;28;20038;-70
2023/06/02 04:17:20;;;;;;;12.32;4.65;;;;;;;11.40;85.75;100126.84;10413419;28;20107;-70
2023/06/02 04:22:22;;;;;;;8.07;4.20;;;;;;;11.45;84.37;100130.16;10429112;22;20128;-72
2023/06/02 04:27:24;;;;;;;15.25;4.30;;;;;;;11.48;84.10;100135.34;10418592;28;20430;-72
2023/06/02 04:32:26;;;;;;;13.93;4.50;;;;;;;11.62;83.61;100138.34;10419427;28;20128;-73
2023/06/02 04:37:29;;;;;;;9.23;4.13;;;;;;;11.53;83.99;100141.31;10426664;28;20457;-72
2023/06/02 04:42:32;;;;;;;8.38;4.10;;;;;;;11.61;83.40;100139.28;10442438;28;20064;-72
2023/06/02 04:47:36;;;;;;;10.65;4.93;;;;;;;11.61;83.43;100148.94;10443941;28;20049;-72
2023/06/02 04:52:39;;;;;;;13.48;5.05;;;;;;;11.33;85.38;100149.88;10443999;28;20037;-70
2023/06/02 04:57:42;;;;;;;16.10;5.05;;;;;;;11.38;85.18;100149.72;10426949;28;20084;-72
2023/06/02 05:02:46;;;;;;;11.02;4.63;;;;;;;11.64;84.19;100151.44;10428995;28;20033;-71
2023/06/02 05:07:51;;;;;;;9.95;4.38;;;;;;;11.66;83.24;100149.66;10425942;28;20503;-71
2023/06/02 05:12:54;;;;;;;7.55;3.90;;;;;;;11.52;84.76;100151.91;10426178;28;20099;-71
2023/06/02 05:17:56;;;;;;;13.88;4.82;;;;;;;11.84;83.92;100151.66;10441774;28;20421;-71
2023/06/02 05:22:59;;;;;;;12.27;4.18;;;;;;;12.00;82.15;100153.78;10423680;28;20048;-71
2023/06/02 05:28:01;;;;;;;8.15;3.65;;;;;;;12.29;79.47;100153.56;10425824;28;20482;-71
2023/06/02 05:33:04;;;;;;;8.68;3.80;;;;;;;12.33;78.39;100160.44;10442490;28;20053;-71
2023/06/02 05:38:06;;;;;;;10.45;4.18;;;;;;;12.31;80.56;100166.69;10439222;28;20057;-72
2023/06/02 05:43:09;;;;;;;15.35;4.38;;;;;;;12.21;79.87;100165.28;10406554;28;20499;-71
2023/06/02 05:48:12;;;;;;;10.27;4.03;;;;;;;12.45;77.44;100172.31;10406936;28;20045;-71
2023/06/02 05:53:14;;;;;;;10.60;3.88;;;;;;;12.30;78.41;100168.44;10422128;28;20055;-72
2023/06/02 05:58:18;;;;;;;10.57;3.92;;;;;;;12.62;76.86;100164.63;10438145;28;20053;-71
2023/06/02 06:03:22;;;;;;;19.55;4.50;;;;;;;12.66;77.63;100169.78;10421456;28;20042;-72
2023/06/02 06:08:24;;;;;;;16.70;3.55;;;;;;;12.82;77.47;100177.03;10420138;28;20088;-72
2023/06/02 06:13:26;;;;;;;16.85;5.07;;;;;;;12.80;76.71;100178.91;10403446;28;20069;-72
2023/06/02 06:18:28;;;;;;;9.88;3.80;;;;;;;13.06;74.91;100183.16;10436784;28;20052;-72
2023/06/02 06:23:30;;;;;;;12.32;4.45;;;;;;;13.17;75.20;100185.34;10438273;28;20060;-72
2023/06/02 06:28:33;;;;;;;16.00;4.05;;;;;;;13.26;73.75;100187.66;10419808;28;20041;-71
2023/06/02 06:33:35;;;;;;;15.93;4.50;;;;;;;13.27;74.35;100188.50;10436969;28;20046;-72
2023/06/02 06:38:38;;;;;;;19.25;4.68;;;;;;;13.48;72.51;100186.78;10419540;28;20395;-71
2023/06/02 06:43:41;;;;;;;12.77;4.32;;;;;;;13.38;75.33;100202.16;10418820;28;20041;-72
2023/06/02 06:48:45;;;;;;;19.63;5.32;;;;;;;13.71;72.61;100188.47;10419051;28;20423;-72
2023/06/02 06:53:50;;;;;;;13.63;4.35;;;;;;;13.62;72.37;100205.56;10420838;28;20048;-72
2023/06/02 06:58:52;;;;;;;11.05;4.28;;;;;;;13.60;71.62;100205.63;10422615;28;20107;-73
2023/06/02 07:03:54;;;;;;;12.70;4.65;;;;;;;13.71;71.49;100202.53;10435033;28;20530;-72
2023/06/02 07:08:56;;;;;;;18.25;5.00;;;;;;;13.69;70.88;100204.38;10418533;28;20497;-70
2023/06/02 07:14:04;;;;;;;15.38;4.47;;;;;;;14.17;70.07;100210.28;10416186;28;20063;-70
2023/06/02 07:19:17;;;;;;;13.25;3.90;;;;;;;14.06;70.81;100216.88;10439610;28;20411;-70
2023/06/02 07:24:18;;;;;;;16.13;4.05;;;;;;;14.51;67.78;100217.59;10418753;28;20042;-70
2023/06/02 07:29:20;;;;;;;15.30;5.38;;;;;;;14.67;68.02;100225.72;10452580;28;20096;-71
2023/06/02 07:34:22;;;;;;;14.10;4.47;;;;;;;14.47;68.15;100218.63;10459573;28;20037;-71
2023/06/02 07:39:24;;;;;;;14.23;4.60;;;;;;;14.79;66.10;100222.50;10460675;28;20426;-71
2023/06/02 07:44:26;;;;;;;10.68;4.32;;;;;;;15.30;65.89;100213.03;10447739;28;20041;-71
2023/06/02 07:49:28;;;;;;;14.95;4.18;;;;;;;15.77;62.60;100210.72;10425294;28;20076;-71
2023/06/02 07:54:30;;;;;;;13.13;4.13;;;;;;;15.41;64.12;100218.66;10458663;28;20047;-71
2023/06/02 07:59:32;;;;;;;19.23;4.78;;;;;;;15.59;62.83;100219.56;10442339;28;20049;-72
2023/06/02 08:04:33;;;;;;;14.02;4.47;;;;;;;15.81;62.07;100214.94;10418886;28;20061;-71
2023/06/02 08:09:35;;;;;;;14.48;3.92;;;;;;;16.36;60.78;100209.41;10417485;28;20458;-71
2023/06/02 08:14:37;;;;;;;21.77;4.18;;;;;;;16.64;61.60;100208.81;10417492;28;20432;-71
2023/06/02 08:19:41;;;;;;;11.45;3.75;;;;;;;16.25;61.43;100211.78;10457481;28;20041;-71
2023/06/02 08:24:44;;;;;;;14.00;4.00;;;;;;;16.06;62.78;100213.66;10457829;28;20045;-71
2023/06/02 08:29:46;;;;;;;11.07;4.03;;;;;;;16.31;61.40;100202.66;10460523;28;20045;-70
2023/06/02 08:34:56;;;;;;;19.55;4.53;;;;;;;16.14;61.57;100207.03;10459915;28;20060;-70
2023/06/02 08:39:58;;;;;;;16.20;4.57;;;;;;;16.56;60.14;100203.06;10459923;28;20393;-70
2023/06/02 08:45:00;;;;;;;13.93;3.88;;;;;;;16.83;58.97;100195.44;10459128;28;20037;-70
2023/06/02 08:50:02;;;;;;;12.57;4.03;;;;;;;16.75;60.08;100202.94;10459537;28;20132;-70
2023/06/02 08:55:05;;;;;;;13.50;3.55;;;;;;;17.29;58.54;100208.78;10459202;28;20043;-70
2023/06/02 09:00:08;;;;;;;13.20;3.75;;;;;;;17.59;57.00;100190.22;10455720;28;20047;-70
2023/06/02 09:05:13;;;;;;;11.20;3.75;;;;;;;17.61;57.99;100177.69;10457421;28;20037;-70
2023/06/02 09:10:29;;;;;;;14.57;4.30;;;;;;;17.71;55.99;100174.47;10458318;28;20509;-70
2023/06/02 09:15:32;;;;;;;14.40;3.80;;;;;;;18.15;56.10;100177.19;10457502;28;20103;-71
2023/06/02 09:20:37;;;;;;;16.92;3.60;;;;;;;18.64;56.47;100190.97;10461121;28;20044;-70
2023/06/02 09:25:40;;;;;;;10.80;3.85;;;;;;;19.51;52.83;100202.31;10463059;28;20060;-70
2023/06/02 09:30:42;;;;;;;12.23;3.10;;;;;;;19.41;50.31;100197.59;10465078;28;20069;-71
2023/06/02 09:35:45;;;;;;;10.77;3.55;;;;;;;19.23;50.06;100192.63;10465560;28;20037;-71
2023/06/02 09:40:47;;;;;;;14.93;2.90;;;;;;;19.07;50.18;100196.25;10466941;28;20056;-70
2023/06/02 09:45:49;;;;;;;12.13;2.97;;;;;;;19.00;50.16;100200.28;10466352;28;20045;-70
2023/06/02 09:50:51;;;;;;;20.00;3.40;;;;;;;18.32;52.29;100192.97;10463946;28;20049;-71
2023/06/02 09:55:52;;;;;;;6.75;2.53;;;;;;;18.00;51.26;100194.06;10465146;28;20041;-71
2023/06/02 10:00:54;;;;;;;13.82;2.97;;;;;;;18.51;50.11;100194.50;10466500;28;20136;-71
2023/06/02 10:06:28;;;;;;;7.10;2.53;;;;;;;18.57;49.68;100197.63;10465352;28;20048;-70
2023/06/02 10:11:42;;;;;;;9.70;2.67;;;;;;;18.13;50.49;100189.72;10465461;28;20088;-71
2023/06/02 10:16:50;;;;;;;10.27;2.63;;;;;;;19.23;48.49;100197.94;10464815;28;20455;-71
2023/06/02 10:22:19;;;;;;;7.65;2.42;;;;;;;20.01;47.15;100209.63;10469409;23;20057;-75
2023/06/02 10:27:33;;;;;;;11.85;2.08;;;;;;;19.94;46.58;100205.66;10434244;28;20506;-76
2023/06/02 10:32:47;;;;;;;5.95;2.60;;;;;;;18.99;47.87;100190.59;10417399;28;20041;-76
2023/06/02 10:38:28;;;;;;;8.88;2.33;;;;;;;19.63;46.94;100194.41;10433893;28;20041;-75
2023/06/02 10:43:34;;;;;;;9.38;2.60;;;;;;;18.93;47.18;100188.31;10419331;28;20091;-76
2023/06/02 10:48:42;;;;;;;8.02;2.17;;;;;;;19.21;44.85;100192.69;10434593;28;20095;-76
2023/06/02 10:54:02;;;;;;;11.48;2.40;;;;;;;20.07;46.75;100192.34;10418821;28;20038;-73
2023/06/02 10:59:03;;;;;;;6.40;2.53;;;;;;;19.73;46.85;100193.78;10418214;28;20045;-75
2023/06/02 11:04:24;;;;;;;8.32;2.50;;;;;;;18.92;49.25;100186.59;10417629;28;20041;-75
2023/06/02 11:09:34;;;;;;;8.38;2.30;;;;;;;18.62;49.33;100198.19;10417807;28;20052;-74
2023/06/02 11:15:04;;;;;;;7.05;2.45;;;;;;;18.77;48.58;100200.88;10415579;28;20434;-75
2023/06/02 11:20:06;;;;;;;7.18;2.15;;;;;;;18.65;48.49;100200.69;10416855;28;20116;-74
2023/06/02 11:25:10;;;;;;;9.73;2.65;;;;;;;18.65;48.26;100205.16;10417318;28;20044;-75
2023/06/02 11:30:14;;;;;;;10.60;2.70;;;;;;;18.66;47.92;100196.19;10417172;28;20042;-75
2023/06/02 11:35:20;;;;;;;6.88;2.90;;;;;;;19.12;48.20;100211.94;10417534;28;20046;-75
2023/06/02 11:40:22;;;;;;;8.47;2.47;;;;;;;19.01;47.85;100209.13;10418160;28;20069;-75
2023/06/02 11:45:25;;;;;;;6.05;1.98;;;;;;;19.36;46.42;100204.19;10415374;28;20112;-75
2023/06/02 11:50:29;;;;;;;8.68;2.22;;;;;;;19.20;46.18;100203.47;10416091;28;20104;-75
2023/06/02 11:55:32;;;;;;;6.22;2.67;;;;;;;18.88;47.64;100212.56;10414559;28;20073;-74
2023/06/02 12:00:35;;;;;;;6.75;2.78;;;;;;;19.09;46.90;100205.03;10415532;28;20076;-76
2023/06/02 12:05:36;;;;;;;8.48;2.67;;;;;;;18.70;47.06;100215.53;10414274;28;20038;-75
2023/06/02 12:10:39;;;;;;;16.38;3.05;;;;;;;18.03;49.42;100216.03;10416310;28;20461;-75
2023/06/02 12:15:41;;;;;;;11.95;3.00;;;;;;;17.70;51.90;100231.25;10415453;28;20112;-75
2023/06/02 12:20:43;;;;;;;8.15;2.75;;;;;;;17.68;53.55;100234.03;10415393;28;20472;-75
2023/06/02 12:25:57;;;;;;;11.63;2.83;;;;;;;17.46;54.14;100237.06;10414784;28;20044;-74
2023/06/02 12:30:59;;;;;;;9.05;3.25;;;;;;;17.30;54.81;100234.41;10415882;28;20049;-75
2023/06/02 12:36:01;;;;;;;5.47;2.28;;;;;;;17.31;53.79;100236.13;10413250;28;20042;-76
2023/06/02 12:41:03;;;;;;;8.07;2.88;;;;;;;17.50;54.02;100235.09;10413809;28;20558;-76
2023/06/02 12:46:06;;;;;;;9.73;2.67;;;;;;;17.27;53.67;100247.88;10414627;28;20057;-74
2023/06/02 12:51:09;;;;;;;6.45;1.90;;;;;;;17.15;52.32;100244.09;10414617;28;20045;-75
2023/06/02 12:56:11;;;;;;;7.03;2.00;;;;;;;17.34;53.00;100245.72;10420717;28;20045;-75
2023/06/02 13:01:13;;;;;;;8.73;2.78;;;;;;;17.47;51.61;100241.41;10422493;28;20125;-74
2023/06/02 13:06:14;;;;;;;9.45;2.95;;;;;;;17.64;52.85;100243.13;10421634;28;20105;-74
2023/06/02 13:11:17;;;;;;;8.10;2.88;;;;;;;17.67;53.38;100236.78;10422004;28;20049;-74
2023/06/02 13:16:18;;;;;;;9.30;2.55;;;;;;;17.69;53.90;100232.22;10420619;28;20491;-75
2023/06/02 13:21:20;;;;;;;8.13;2.78;;;;;;;18.04;54.16;100224.84;10422101;28;20045;-73
2023/06/02 13:26:23;;;;;;;8.75;2.67;;;;;;;18.47;51.08;100228.44;10421623;28;20410;-74
2023/06/02 13:31:25;;;;;;;5.60;2.22;;;;;;;18.67;49.46;100230.72;10420954;28;20041;-73
2023/06/02 13:36:27;;;;;;;8.63;1.83;;;;;;;18.93;49.35;100225.59;10421401;28;20538;-73
2023/06/02 13:41:29;;;;;;;6.10;2.08;;;;;;;18.95;48.66;100226.38;10420692;28;20049;-74
2023/06/02 13:46:30;;;;;;;6.75;2.80;;;;;;;18.74;50.37;100222.38;10430350;28;20037;-73
2023/06/02 13:51:32;;;;;;;8.90;2.63;;;;;;;18.44;50.68;100227.78;10454032;28;20481;-73
2023/06/02 13:56:34;;;;;;;6.03;2.88;;;;;;;17.92;50.50;100239.72;10420550;28;20037;-74
2023/06/02 14:01:36;;;;;;;6.13;2.60;;;;;;;18.13;49.89;100235.78;10436667;28;20055;-72
2023/06/02 14:06:38;;;;;;;6.60;2.97;;;;;;;18.16;48.39;100237.44;10461899;28;20099;-75
2023/06/02 14:11:41;;;;;;;6.95;2.50;;;;;;;18.23;48.45;100233.44;10462058;28;20045;-74
2023/06/02 14:16:43;;;;;;;7.90;3.30;;;;;;;18.49;48.62;100229.19;10461342;28;20079;-74
2023/06/02 14:21:45;;;;;;;12.40;3.15;;;;;;;18.43;48.17;100223.41;10460495;28;20103;-75
2023/06/02 14:26:47;;;;;;;5.82;3.03;;;;;;;18.42;48.75;100219.88;10461960;28;20376;-74
2023/06/02 14:31:49;;;;;;;5.93;2.30;;;;;;;18.81;48.16;100234.34;10460040;28;20049;-74
2023/06/02 14:36:51;;;;;;;14.57;3.47;;;;;;;19.11;47.15;100227.09;10452496;28;20038;-74
2023/06/02 14:41:54;;;;;;;5.07;3.00;;;;;;;19.16;47.97;100227.63;10452439;28;20127;-75
2023/06/02 14:46:56;;;;;;;7.05;2.85;;;;;;;19.48;45.50;100227.38;10458997;28;20128;-74
2023/06/02 14:51:58;;;;;;;8.48;2.88;;;;;;;19.17;46.73;100225.84;10459149;28;20490;-74
2023/06/02 14:57:03;;;;;;;4.97;3.22;;;;;;;19.42;46.00;100220.63;10458721;28;20053;-74
2023/06/02 15:02:05;;;;;;;8.55;2.88;;;;;;;19.96;44.71;100217.06;10458715;28;20045;-74
2023/06/02 15:07:07;;;;;;;4.00;2.50;;;;;;;20.31;42.29;100213.81;10458508;28;20045;-74
2023/06/02 15:12:09;;;;;;;4.82;2.80;;;;;;;19.70;44.49;100226.84;10458963;28;20041;-75
2023/06/02 15:17:11;;;;;;;3.65;2.97;;;;;;;19.03;45.29;100220.53;10457991;28;20456;-73
2023/06/02 15:22:14;;;;;;;5.63;2.53;;;;;;;18.32;45.21;100221.38;10457730;28;20486;-73
2023/06/02 15:27:16;;;;;;;4.00;2.22;;;;;;;18.43;43.99;100226.06;10457797;28;20102;-74
2023/06/02 15:32:18;;;;;;;6.30;2.25;;;;;;;18.26;43.48;100225.28;10457459;28;20045;-74
2023/06/02 15:37:19;;;;;;;2.53;1.70;;;;;;;18.66;42.12;100225.50;10458030;28;20114;-73
2023/06/02 15:42:21;;;;;;;4.70;1.60;;;;;;;18.79;41.75;100220.28;10457585;28;20447;-76
2023/06/02 15:47:23;;;;;;;2.70;1.55;;;;;;;18.82;42.55;100220.09;10457736;28;20049;-72
2023/06/02 15:52:25;;;;;;;3.30;1.35;;;;;;;19.32;41.55;100221.34;10456100;28;20419;-73
2023/06/02 15:57:26;;;;;;;2.55;1.50;;;;;;;19.35;41.34;100227.31;10457825;28;20051;-74
2023/06/02 16:02:28;;;;;;;2.00;1.30;;;;;;;19.27;42.54;100223.44;10458468;28;20037;-73
2023/06/02 16:07:30;;;;;;;2.78;1.42;;;;;;;19.32;42.29;100218.66;10457126;28;20076;-72
2023/06/02 16:12:32;;;;;;;5.68;1.38;;;;;;;19.71;42.01;100225.88;10456416;28;20045;-74
2023/06/02 16:17:39;;;;;;;2.13;1.25;;;;;;;20.12;41.05;100230.25;10457063;28;20044;-73
2023/06/02 16:22:41;;;;;;;3.60;1.40;;;;;;;20.50;40.39;100224.13;10456413;28;20483;-72
2023/06/02 16:27:43;;;;;;;4.75;1.13;;;;;;;20.28;41.35;100227.38;10457466;28;20466;-72
2023/06/02 16:32:45;;;;;;;3.28;1.48;;;;;;;19.97;42.24;100226.81;10464357;28;20041;-72
2023/06/02 16:37:47;;;;;;;3.92;1.67;;;;;;;19.34;42.93;100227.41;10464290;28;20056;-71
2023/06/02 16:42:48;;;;;;;1.67;1.00;;;;;;;19.15;43.40;100225.94;10463949;28;20041;-71
2023/06/02 16:47:51;;;;;;;2.65;1.45;;;;;;;19.09;44.21;100222.81;10463506;28;20494;-72
2023/06/02 16:52:52;;;;;;;4.50;1.40;;;;;;;18.84;44.06;100228.84;10463428;28;20116;-71
2023/06/02 16:57:54;;;;;;;2.63;1.40;;;;;;;18.67;44.03;100227.19;10463848;28;20091;-72
2023/06/02 17:02:56;;;;;;;3.45;1.50;;;;;;;18.44;45.51;100233.94;10463396;28;20467;-72
2023/06/02 17:07:59;;;;;;;2.38;1.40;;;;;;;18.71;44.43;100231.41;10463935;28;20047;-72
2023/06/02 17:13:01;;;;;;;4.85;1.60;;;;;;;18.59;44.91;100237.47;10463744;28;20414;-72
2023/06/02 17:18:03;;;;;;;5.28;1.70;;;;;;;18.72;43.70;100237.59;10462903;28;20049;-73
2023/06/02 17:23:05;;;;;;;2.55;1.30;;;;;;;18.56;43.98;100235.84;10462387;28;20409;-73
2023/06/02 17:28:07;;;;;;;1.88;1.30;;;;;;;18.66;44.07;100246.78;10463232;28;20037;-73
2023/06/02 17:33:08;;;;;;;2.13;1.13;;;;;;;18.95;43.40;100242.34;10462765;28;20368;-73
2023/06/02 17:38:10;;;;;;;3.70;1.30;;;;;;;18.72;44.62;100234.94;10460805;28;20095;-73
2023/06/02 17:43:12;;;;;;;2.95;1.73;;;;;;;18.78;44.66;100239.91;10460592;28;20102;-72
2023/06/02 17:48:14;;;;;;;4.10;1.60;;;;;;;18.55;44.89;100244.81;10461336;28;20037;-73
2023/06/02 17:53:16;;;;;;;3.38;1.75;;;;;;;18.52;44.99;100234.34;10461813;28;20049;-73
2023/06/02 17:58:20;;;;;;;4.97;1.70;;;;;;;18.48;44.89;100245.25;10461133;28;20410;-73
2023/06/02 18:03:22;;;;;;;2.40;1.45;;;;;;;18.51;41.86;100240.63;10461222;28;20068;-72
2023/06/02 18:08:24;;;;;;;3.45;1.40;;;;;;;18.41;38.90;100248.28;10461207;28;20048;-72
2023/06/02 18:13:26;;;;;;;1.92;0.85;;;;;;;18.07;38.34;100257.47;10461233;28;20143;-72
2023/06/02 18:18:28;;;;;;;3.08;1.15;;;;;;;17.89;37.84;100262.06;10461139;28;20053;-74
2023/06/02 18:23:30;;;;;;;1.33;1.10;;;;;;;17.69;38.58;100257.00;10460742;28;20482;-72
2023/06/02 18:28:32;;;;;;;4.93;1.25;;;;;;;17.64;38.57;100261.72;10460257;28;20087;-72
2023/06/02 18:33:34;;;;;;;1.90;0.80;;;;;;;17.36;38.90;100271.25;10460049;28;20037;-72
2023/06/02 18:38:35;;;;;;;1.90;0.80;;;;;;;17.27;38.63;100270.94;10459755;28;20041;-72
2023/06/02 18:43:37;;;;;;;2.63;0.90;;;;;;;17.14;37.96;100271.59;10459288;28;20040;-72
2023/06/02 18:48:39;;;;;;;1.55;0.73;;;;;;;17.14;38.06;100274.25;10458402;28;20417;-72
2023/06/02 18:53:41;;;;;;;2.08;0.90;;;;;;;16.99;38.34;100285.69;10458883;28;20044;-71
2023/06/02 18:58:43;;;;;;;1.50;0.80;;;;;;;16.82;37.90;100291.06;10459462;28;20041;-71
2023/06/02 19:03:44;;;;;;;2.92;0.88;;;;;;;16.70;38.03;100297.88;10447348;28;20112;-71
2023/06/02 19:08:46;;;;;;;1.42;0.90;;;;;;;16.52;38.19;100312.97;10434720;28;20053;-72
2023/06/02 19:13:48;;;;;;;3.33;1.08;;;;;;;16.33;38.68;100302.41;10445531;28;20041;-72
2023/06/02 19:18:50;;;;;;;2.92;0.98;;;;;;;16.22;37.79;100310.06;10458091;28;20449;-73
2023/06/02 19:23:52;;;;;;;2.03;0.73;;;;;;;16.04;37.80;100319.81;10374265;28;20168;-73
2023/06/02 19:28:57;;;;;;;2.97;0.80;;;;;;;15.83;37.90;100334.13;10374287;28;20088;-73
2023/06/02 19:34:02;;;;;;;0.98;0.70;;;;;;;15.62;37.47;100336.84;10375913;28;20496;-73
2023/06/02 19:39:06;;;;;;;4.00;0.60;;;;;;;15.79;36.93;100345.81;10427727;28;20048;-73
2023/06/02 19:44:08;;;;;;;1.98;0.82;;;;;;;15.62;37.27;100349.22;10456826;28;20072;-73
2023/06/02 19:49:10;;;;;;;2.00;1.17;;;;;;;15.49;36.86;100354.25;10455667;28;20132;-73
2023/06/02 19:54:12;;;;;;;1.67;0.70;;;;;;;15.58;36.49;100374.16;10458004;28;20079;-73
2023/06/02 19:59:14;;;;;;;1.92;0.80;;;;;;;15.34;36.51;100368.22;10457213;28;20052;-73
2023/06/02 20:04:16;;;;;;;1.77;1.13;;;;;;;15.27;36.84;100367.66;10443089;28;20033;-73
2023/06/02 20:09:18;;;;;;;1.60;1.05;;;;;;;15.24;36.32;100372.22;10438414;28;20045;-73
2023/06/02 20:14:19;;;;;;;1.70;0.90;;;;;;;14.97;37.26;100379.63;10456082;28;20041;-73
2023/06/02 20:19:21;;;;;;;4.00;1.27;;;;;;;14.80;38.11;100378.56;10457372;28;20402;-74
2023/06/02 20:24:23;;;;;;;1.75;1.05;;;;;;;14.79;37.69;100387.44;10456718;28;20406;-72
2023/06/02 20:29:26;;;;;;;3.08;1.08;;;;;;;14.73;38.57;100390.34;10456551;28;20438;-72
2023/06/02 20:34:27;;;;;;;2.72;1.10;;;;;;;14.46;39.69;100400.28;10456708;28;20061;-73
2023/06/02 20:39:29;;;;;;;2.72;1.52;;;;;;;14.27;39.50;100399.34;10455953;28;20068;-73
2023/06/02 20:44:31;;;;;;;3.03;1.83;;;;;;;14.33;39.65;100414.94;10456105;28;20410;-73
2023/06/02 20:49:33;;;;;;;4.32;2.60;;;;;;;14.09;39.99;100417.66;10455212;28;20090;-73
2023/06/02 20:54:35;;;;;;;7.32;2.20;;;;;;;13.82;40.93;100419.63;10455810;28;20037;-74
2023/06/02 20:59:36;;;;;;;3.75;1.77;;;;;;;13.81;40.36;100422.28;10454127;28;20049;-74
2023/06/02 21:04:38;;;;;;;2.25;0.98;;;;;;;13.63;40.94;100427.41;10455134;28;20115;-74
2023/06/02 21:09:40;;;;;;;2.83;0.88;;;;;;;13.66;40.45;100425.53;10455369;28;20159;-74
2023/06/02 21:14:42;;;;;;;1.88;1.00;;;;;;;13.68;39.72;100434.25;10457728;28;20047;-75
2023/06/02 21:19:45;;;;;;;2.45;0.82;;;;;;;13.50;40.44;100439.34;10462976;28;20053;-74
2023/06/02 21:24:46;;;;;;;1.90;1.00;;;;;;;13.63;39.89;100437.97;10462595;28;20055;-74
2023/06/02 21:29:48;;;;;;;1.35;0.95;;;;;;;13.47;39.98;100434.16;10462271;28;20048;-74
2023/06/02 21:34:50;;;;;;;3.70;1.00;;;;;;;13.40;41.40;100445.00;10462959;28;20049;-74
2023/06/02 21:39:52;;;;;;;1.88;0.90;;;;;;;13.24;39.87;100450.00;10461155;28;20159;-74
2023/06/02 21:44:53;;;;;;;5.18;0.90;;;;;;;13.32;41.18;100450.56;10462372;28;20045;-74
2023/06/02 21:49:55;;;;;;;1.65;0.95;;;;;;;13.09;40.86;100457.50;10462464;28;20495;-74
2023/06/02 21:54:58;;;;;;;2.33;0.63;;;;;;;13.02;40.81;100465.69;10462736;28;20554;-74
2023/06/02 22:00:04;;;;;;;1.88;0.70;;;;;;;12.84;42.10;100462.78;10462533;28;20037;-74
2023/06/02 22:05:06;;;;;;;3.08;0.65;;;;;;;12.68;42.52;100465.97;10462548;28;20077;-74
2023/06/02 22:10:08;;;;;;;2.38;1.10;;;;;;;12.88;40.85;100469.69;10461977;28;20097;-74
2023/06/02 22:15:10;;;;;;;4.15;0.90;;;;;;;12.79;41.24;100466.47;10460841;28;20451;-74
2023/06/02 22:20:13;;;;;;;3.00;0.77;;;;;;;12.88;41.07;100463.50;10459546;28;20061;-73
2023/06/02 22:25:15;;;;;;;3.17;0.90;;;;;;;12.77;41.60;100468.31;10448285;22;20398;-69
2023/06/02 22:30:17;;;;;;;2.03;0.82;;;;;;;12.77;41.55;100468.31;10426522;28;20453;-69
2023/06/02 22:35:19;;;;;;;2.15;0.80;;;;;;;12.62;41.91;100470.56;10426066;28;20117;-69
2023/06/02 22:40:21;;;;;;;1.98;0.90;;;;;;;12.69;42.26;100472.97;10427142;28;20111;-68
2023/06/02 22:45:23;;;;;;;2.10;1.13;;;;;;;12.58;42.75;100481.25;10428897;28;20099;-69
2023/06/02 22:50:25;;;;;;;2.17;0.65;;;;;;;12.43;42.95;100482.59;10426914;28;20042;-69
2023/06/02 22:55:27;;;;;;;3.30;0.77;;;;;;;12.72;42.80;100475.53;10427369;28;20045;-69
2023/06/02 23:00:29;;;;;;;2.25;0.63;;;;;;;12.37;43.36;100486.31;10428186;28;20043;-69
2023/06/02 23:05:31;;;;;;;1.00;0.60;;;;;;;12.02;44.72;100490.03;10425264;28;20113;-68
2023/06/02 23:10:33;;;;;;;1.17;0.80;;;;;;;12.06;44.46;100485.53;10421849;28;20053;-69